Marinicki — 9HWU9 — position and weather

sailwx.info

Track history (hours):
 
Tides and Currents Weather Stations Pressure Air Temp Water Temp Dewpoint Dewpoint Depression Visibility Wind Speed Wind Dir Waves Ship Positions

Marinicki

Last reported at 2015-Mar-17 04:15 UTC. Time now 2015-Mar-31 09:42 UTC.
Position N 36°24' E 014°41'.
Warning: this ship's position is 14 days out of date.

Length 238 m; draft 12.2 m.

Type: Cargo ship. MMSI: 249650000.

Date/timePositionNaut miles runAvg speedWind from/ knotsBaromVisibWave heightAir tempDewpointWater temp
2015-Mar-17 04:15N 36°24' E 014°41'6 8.7
2015-Mar-17 03:32N 36°26' E 014°34'9 8.8
2015-Mar-17 02:33N 36°30' E 014°24'9 8.9
2015-Mar-17 01:34N 36°34' E 014°14'9 8.8
2015-Mar-17 00:33N 36°38' E 014°04'9 9.0
2015-Mar-16 23:33N 36°41' E 013°54'9 9.0
2015-Mar-16 22:33N 36°45' E 013°44'9 8.9
2015-Mar-16 21:33N 36°49' E 013°34'  
2015-Mar-13 05:07N 35°59' W 005°10'814.3
2015-Mar-13 04:33N 35°58' W 005°20'1612.7
2015-Mar-13 03:16N 35°55' W 005°40'3111.3
2015-Mar-13 00:33N 35°53' W 006°18'1711.5
2015-Mar-12 23:03N 35°54' W 006°39'2011.3
2015-Mar-12 21:17N 35°54' W 007°04'3411.2
2015-Mar-12 18:15N 35°54' W 007°46'811.0
2015-Mar-12 17:33N 35°54' W 007°56'8111.0
2015-Mar-12 10:10N 35°54' W 009°36'1811.2
2015-Mar-12 08:32N 35°54' W 009°59'4711.2
2015-Mar-12 04:20N 35°54' W 010°57'2011.1
2015-Mar-12 02:33N 35°55' W 011°21'1211.3
2015-Mar-12 01:29N 35°54' W 011°36'1111.2
2015-Mar-12 00:30N 35°54' W 011°50'2211.1
2015-Mar-11 22:32N 35°54' W 012°16'1111.1
2015-Mar-11 21:33N 35°55' W 012°30'1111.2
2015-Mar-11 20:33N 35°55' W 012°44'1111.0
2015-Mar-11 19:32N 35°55' W 012°57'1111.1
2015-Mar-11 18:33N 35°54' W 013°11'1411.3
2015-Mar-11 17:17N 35°54' W 013°29'2011.4
2015-Mar-11 15:32N 35°55' W 013°53'1311.8
2015-Mar-11 14:26N 35°55' W 014°09'1011.3
2015-Mar-11 13:33N 35°55' W 014°22'1311.0
2015-Mar-11 12:24N 35°55' W 014°37'1211.2
2015-Mar-11 11:19N 35°55' W 014°52'1311.3
2015-Mar-11 10:11N 35°55' W 015°08'711.2
2015-Mar-11 09:33N 35°55' W 015°17'1211.3
2015-Mar-11 08:31N 35°55' W 015°31'1111.2
2015-Mar-11 07:33N 35°55' W 015°45'1310.9
2015-Mar-11 06:19N 35°55' W 016°01'911.0
2015-Mar-11 05:33N 35°55' W 016°12'1111.4
2015-Mar-11 04:33N 35°55' W 016°26'1211.6
2015-Mar-11 03:33N 35°55' W 016°40'1111.3
2015-Mar-11 02:33N 35°55' W 016°54'1111.2
2015-Mar-11 01:33N 35°55' W 017°08'1111.4
2015-Mar-11 00:33N 35°55' W 017°22'1111.2
2015-Mar-10 23:33N 35°55' W 017°36'1111.3
2015-Mar-10 22:33N 35°55' W 017°50'1111.4
2015-Mar-10 21:33N 35°55' W 018°04'1211.3
2015-Mar-10 20:32N 35°55' W 018°18'1111.3
2015-Mar-10 19:33N 35°55' W 018°32'1211.5
2015-Mar-10 18:32N 35°55' W 018°46'1511.4
2015-Mar-10 17:14N 35°55' W 019°05'19011.3
2015-Mar-10 00:24N 35°55' W 022°59'1111.8
2015-Mar-09 23:28N 35°55' W 023°13'3311.5
2015-Mar-09 20:33N 35°56' W 023°54'1111.3
2015-Mar-09 19:33N 35°56' W 024°08'1111.5
2015-Mar-09 18:34N 35°55' W 024°22'1211.6
2015-Mar-09 17:33N 35°56' W 024°36'1111.5
2015-Mar-09 16:33N 35°56' W 024°50'1111.4
2015-Mar-09 15:34N 35°56' W 025°04'1111.4
2015-Mar-09 14:34N 35°56' W 025°19'1111.4
2015-Mar-09 13:34N 35°56' W 025°33'1111.4
2015-Mar-09 12:33N 35°56' W 025°47'1111.2
2015-Mar-09 11:33N 35°56' W 026°01'1211.0
2015-Mar-09 10:28N 35°56' W 026°16'1010.9
2015-Mar-09 09:33N 35°56' W 026°28'1210.9
2015-Mar-09 08:30N 35°56' W 026°42'10211.4
2015-Mar-08 23:30N 35°56' W 028°48'  
Track history (hours):
 
Tides and Currents Weather Stations Pressure Air Temp Water Temp Dewpoint Dewpoint Depression Visibility Wind Speed Wind Dir Waves Ship Positions

Marinicki

Last reported at 2015-Mar-17 04:15 UTC. Time now 2015-Mar-31 09:42 UTC.
Position N 36°24' E 014°41'.
Warning: this ship's position is 14 days out of date.

Length 238 m; draft 12.2 m.

Type: Cargo ship. MMSI: 249650000.

Date/timePositionNaut miles runAvg speedWind from/ knotsBaromVisibWave heightAir tempDewpointWater temp
2015-Mar-17 04:15N 36°24' E 014°41'6 8.7
2015-Mar-17 03:32N 36°26' E 014°34'9 8.8
2015-Mar-17 02:33N 36°30' E 014°24'9 8.9
2015-Mar-17 01:34N 36°34' E 014°14'9 8.8
2015-Mar-17 00:33N 36°38' E 014°04'9 9.0
2015-Mar-16 23:33N 36°41' E 013°54'9 9.0
2015-Mar-16 22:33N 36°45' E 013°44'9 8.9
2015-Mar-16 21:33N 36°49' E 013°34'  
2015-Mar-13 05:07N 35°59' W 005°10'814.3
2015-Mar-13 04:33N 35°58' W 005°20'1612.7
2015-Mar-13 03:16N 35°55' W 005°40'3111.3
2015-Mar-13 00:33N 35°53' W 006°18'1711.5
2015-Mar-12 23:03N 35°54' W 006°39'2011.3
2015-Mar-12 21:17N 35°54' W 007°04'3411.2
2015-Mar-12 18:15N 35°54' W 007°46'811.0
2015-Mar-12 17:33N 35°54' W 007°56'8111.0
2015-Mar-12 10:10N 35°54' W 009°36'1811.2
2015-Mar-12 08:32N 35°54' W 009°59'4711.2
2015-Mar-12 04:20N 35°54' W 010°57'2011.1
2015-Mar-12 02:33N 35°55' W 011°21'1211.3
2015-Mar-12 01:29N 35°54' W 011°36'1111.2
2015-Mar-12 00:30N 35°54' W 011°50'2211.1
2015-Mar-11 22:32N 35°54' W 012°16'1111.1
2015-Mar-11 21:33N 35°55' W 012°30'1111.2
2015-Mar-11 20:33N 35°55' W 012°44'1111.0
2015-Mar-11 19:32N 35°55' W 012°57'1111.1
2015-Mar-11 18:33N 35°54' W 013°11'1411.3
2015-Mar-11 17:17N 35°54' W 013°29'2011.4
2015-Mar-11 15:32N 35°55' W 013°53'1311.8
2015-Mar-11 14:26N 35°55' W 014°09'1011.3
2015-Mar-11 13:33N 35°55' W 014°22'1311.0
2015-Mar-11 12:24N 35°55' W 014°37'1211.2
2015-Mar-11 11:19N 35°55' W 014°52'1311.3
2015-Mar-11 10:11N 35°55' W 015°08'711.2
2015-Mar-11 09:33N 35°55' W 015°17'1211.3
2015-Mar-11 08:31N 35°55' W 015°31'1111.2
2015-Mar-11 07:33N 35°55' W 015°45'1310.9
2015-Mar-11 06:19N 35°55' W 016°01'911.0
2015-Mar-11 05:33N 35°55' W 016°12'1111.4
2015-Mar-11 04:33N 35°55' W 016°26'1211.6
2015-Mar-11 03:33N 35°55' W 016°40'1111.3
2015-Mar-11 02:33N 35°55' W 016°54'1111.2
2015-Mar-11 01:33N 35°55' W 017°08'1111.4
2015-Mar-11 00:33N 35°55' W 017°22'1111.2
2015-Mar-10 23:33N 35°55' W 017°36'1111.3
2015-Mar-10 22:33N 35°55' W 017°50'1111.4
2015-Mar-10 21:33N 35°55' W 018°04'1211.3
2015-Mar-10 20:32N 35°55' W 018°18'1111.3
2015-Mar-10 19:33N 35°55' W 018°32'1211.5
2015-Mar-10 18:32N 35°55' W 018°46'1511.4
2015-Mar-10 17:14N 35°55' W 019°05'19011.3
2015-Mar-10 00:24N 35°55' W 022°59'1111.8
2015-Mar-09 23:28N 35°55' W 023°13'3311.5
2015-Mar-09 20:33N 35°56' W 023°54'1111.3
2015-Mar-09 19:33N 35°56' W 024°08'1111.5
2015-Mar-09 18:34N 35°55' W 024°22'1211.6
2015-Mar-09 17:33N 35°56' W 024°36'1111.5
2015-Mar-09 16:33N 35°56' W 024°50'1111.4
2015-Mar-09 15:34N 35°56' W 025°04'1111.4
2015-Mar-09 14:34N 35°56' W 025°19'1111.4
2015-Mar-09 13:34N 35°56' W 025°33'1111.4
2015-Mar-09 12:33N 35°56' W 025°47'1111.2
2015-Mar-09 11:33N 35°56' W 026°01'1211.0
2015-Mar-09 10:28N 35°56' W 026°16'1010.9
2015-Mar-09 09:33N 35°56' W 026°28'1210.9
2015-Mar-09 08:30N 35°56' W 026°42'10211.4
2015-Mar-08 23:30N 35°56' W 028°48'  

Dump ship's entire track history